Data for 07/31/2013

Time Sea-Level Adjusted Pressure Absolute Pressure Temperature Relative Humidity Dew Point   
(mb) (inHg) (mb) (inHg) (C) (F) (%) (C) (F)
00:05 1026 30.3 855 25.25 14.8 58.7 65 8.4 47.1
00:10 1026 30.3 855 25.25 14.8 58.6 65 8.3 47
00:15 1026 30.3 855 25.25 14.6 58.3 67 8.5 47.4
00:20 1026 30.3 855 25.25 14.4 57.9 68 8.5 47.3
00:25 1026 30.3 855 25.25 14.3 57.7 68 8.5 47.2
00:30 1026 30.3 855 25.25 14.2 57.6 68 8.4 47.1
00:35 1026 30.3 855 25.25 14.1 57.4 68 8.3 47
00:40 1026 30.3 855 25.25 14 57.1 66 7.7 45.8
00:45 1026 30.3 855 25.25 14 57.1 66 7.7 45.8
00:50 1026 30.3 855 25.25 13.9 57.1 65 7.5 45.6
00:55 1026 30.3 855 25.25 14.1 57.3 64 7.4 45.4
01:00 1026 30.3 855 25.25 14.1 57.4 64 7.5 45.5
01:05 1026 30.3 855 25.25 14 57.2 65 7.6 45.6
01:10 1026 30.3 855 25.25 13.9 56.9 65 7.5 45.5
01:15 1026 30.3 855 25.25 13.8 56.9 65 7.4 45.4
01:20 1026 30.3 855 25.25 13.7 56.6 66 7.4 45.4
01:25 1026 30.3 855 25.25 13.3 56 66 7.1 44.9
01:30 1026 30.3 855 25.25 13 55.3 66 6.9 44.4
01:35 1026 30.3 855 25.25 13.1 55.5 66 6.9 44.4
01:40 1026 30.3 855 25.25 13.2 55.8 66 7 44.6
01:45 1026 30.3 855 25.25 13.3 55.9 66 7.1 44.8
01:50 1026 30.3 855 25.25 13.4 56.1 66 7.1 44.9
01:55 1026 30.3 855 25.25 13.5 56.3 66 7.4 45.4
02:00 1026 30.3 855 25.25 13.5 56.3 66 7.4 45.4
02:05 1026 30.3 855 25.25 13.5 56.2 67 7.5 45.6
02:10 1026 30.3 855 25.25 13.3 55.9 67 7.3 45.2
02:15 1026 30.3 855 25.25 13.2 55.7 68 7.5 45.4
02:20 1026 30.3 855 25.25 13 55.3 69 7.5 45.5
02:25 1026 30.3 855 25.25 12.8 55 69 7.3 45.1
02:30 1026 30.3 855 25.25 12.7 54.8 66 6.6 43.9
02:35 1026 30.3 855 25.25 12.7 54.8 66 6.5 43.8
02:40 1026 30.3 855 25.25 12.5 54.6 66 6.4 43.5
02:45 1026 30.3 855 25.25 12.8 55 66 6.6 43.9
02:50 1026 30.3 855 25.25 13.1 55.5 65 6.6 43.9
02:55 1026 30.3 855 25.25 13.2 55.7 65 6.7 44.1
03:00 1026 30.3 855 25.25 13.1 55.6 65 6.8 44.3
03:05 1026 30.3 855 25.25 13.1 55.5 65 6.7 44.1
03:10 1026 30.3 855 25.25 12.9 55.2 66 6.7 44.1
03:15 1026 30.3 855 25.25 12.7 54.8 66 6.5 43.7
03:20 1026 30.3 855 25.25 12.5 54.5 65 6.2 43.2
03:25 1026 30.3 855 25.25 12.7 54.8 66 6.6 43.9
03:30 1026 30.3 855 25.25 12.8 55.1 65 6.4 43.6
03:35 1026 30.3 855 25.25 12.8 55 65 6.5 43.7
03:40 1026 30.3 855 25.25 12.7 54.9 66 6.5 43.8
03:45 1026 30.3 855 25.25 12.7 54.8 65 6.4 43.4
03:50 1026 30.3 855 25.25 12.4 54.4 66 6.4 43.5
03:55 1026 30.3 855 25.25 12.2 54 67 6.3 43.4
04:00 1026 30.3 855 25.25 12.3 54.1 67 6.4 43.6
04:05 1026 30.3 855 25.25 12.3 54.2 68 6.7 44.1
04:10 1026 30.3 855 25.25 12.3 54.1 68 6.5 43.7
04:15 1026 30.3 855 25.25 12.1 53.7 68 6.4 43.5
04:20 1026 30.3 855 25.25 12 53.5 68 6.3 43.4
04:25 1026 30.3 855 25.25 11.9 53.4 69 6.3 43.4
04:30 1026 30.3 855 25.25 11.8 53.2 69 6.3 43.3
04:35 1026 30.3 855 25.25 11.6 52.9 69 6.2 43.1
04:40 1026 30.3 855 25.25 11.7 53 69 6.3 43.3
04:45 1026 30.3 855 25.25 11.5 52.8 70 6.2 43.2
04:50 1026 30.3 855 25.25 11.4 52.5 70 6.1 43
04:55 1026 30.3 855 25.25 11.2 52.2 69 5.8 42.4
05:00 1026 30.3 855 25.25 11.2 52.2 68 5.5 41.8
05:05 1026 30.3 855 25.25 11.3 52.4 66 5.3 41.5
05:10 1026 30.3 855 25.25 11.5 52.7 66 5.4 41.7
05:15 1026 30.3 855 25.25 11.6 52.8 67 5.7 42.3
05:20 1026 30.3 855 25.25 11.3 52.3 69 5.8 42.4
05:25 1026 30.3 855 25.25 11.1 51.9 70 5.9 42.6
05:30 1026 30.3 855 25.25 10.9 51.7 70 5.8 42.4
05:35 1026 30.3 855 25.25 11 51.7 71 6 42.8
05:40 1026 30.3 855 25.25 11.1 52 71 6 42.9
05:45 1026 30.3 855 25.25 11.6 52.8 70 6.2 43.2
05:50 1026 30.3 855 25.25 11.9 53.4 69 6.5 43.6
05:55 1026 30.3 855 25.25 11.9 53.4 69 6.5 43.7
06:00 1026 30.3 855 25.25 12 53.6 69 6.4 43.6
06:05 1026 30.3 855 25.25 12.2 54 67 6.4 43.5
06:10 1026 30.3 856 25.28 12.5 54.6 66 6.4 43.6
06:15 1026 30.3 856 25.28 12.8 55 65 6.5 43.7
06:20 1026 30.3 856 25.28 13 55.5 64 6.5 43.7
06:25 1026 30.3 856 25.28 13.1 55.7 65 6.7 44.1
06:30 1026 30.3 856 25.28 13.2 55.8 64 6.7 44.1
06:35 1026 30.3 855 25.25 13.3 56 63 6.4 43.5
06:40 1026 30.3 855 25.25 13.6 56.5 62 6.6 43.8
06:45 1026 30.3 855 25.25 14 57.2 61 6.7 44
06:50 1026 30.3 855 25.25 14.4 57.9 59 6.6 43.9
06:55 1026 30.3 855 25.25 14.4 58 59 6.7 44.1
07:00 1026 30.3 855 25.25 14.6 58.2 59 6.7 44.1
07:05 1026 30.3 855 25.25 14.7 58.5 59 6.8 44.3
07:10 1026 30.3 855 25.25 15.1 59.3 57 6.9 44.4
07:15 1026 30.3 855 25.25 15.4 59.8 56 6.8 44.2
07:20 1026 30.3 855 25.25 15.7 60.3 56 6.9 44.4
07:25 1026 30.3 855 25.25 15.8 60.4 56 7.1 44.7
07:30 1026 30.3 855 25.25 15.9 60.6 54 6.7 44
07:35 1026 30.3 855 25.25 16.4 61.5 53 6.8 44.2
07:40 1026 30.3 855 25.25 17.2 63 49 6.6 44
07:45 1026 30.3 855 25.25 17.7 63.8 49 7 44.6
07:50 1026 30.3 855 25.25 18.2 64.8 47 6.7 44.1
07:55 1026 30.3 855 25.25 18.7 65.7 46 6.9 44.4
08:00 1026 30.3 855 25.25 18.8 65.8 44 6.5 43.7
08:05 1026 30.3 855 25.25 18.4 65 46 6.7 44
08:10 1026 30.3 855 25.25 18.6 65.5 46 6.7 44.1
08:15 1026 30.3 855 25.25 18.6 65.5 47 7.3 45.2
08:20 1026 30.3 855 25.25 19 66.1 44 6.7 44.1
08:25 1026 30.3 855 25.25 19.5 67.1 44 7 44.7
08:30 1026 30.3 855 25.25 19.7 67.5 43 6.9 44.5
08:35 1026 30.3 855 25.25 20.3 68.6 42 7.1 44.8
08:40 1026 30.3 855 25.25 20.4 68.7 42 7.2 44.9
08:45 1026 30.3 855 25.25 20.4 68.6 44 7.8 46
08:50 1026 30.3 855 25.25 19.7 67.5 44 7.1 44.8
08:55 1026 30.3 855 25.25 19.9 67.8 42 6.9 44.4
09:00 1026 30.3 855 25.25 20.5 68.9 41 6.8 44.3
09:05 1026 30.3 855 25.25 21.3 70.4 38 6.6 44
09:10 1026 30.3 855 25.25 21.9 71.5 37 7 44.5
09:15 1026 30.3 855 25.25 21.6 71 36 6.2 43.2
09:20 1026 30.3 855 25.25 21.8 71.2 38 6.9 44.4
09:25 1026 30.3 855 25.25 22.1 71.8 37 6.9 44.4
09:30 1026 30.3 855 25.25 22.7 72.8 36 7.1 44.8
09:35 1026 30.3 855 25.25 23.2 73.8 33 6.3 43.3
09:40 1026 30.3 855 25.25 23.1 73.6 35 7.1 44.8
09:45 1026 30.3 855 25.25 23 73.3 32 5.5 41.9
09:50 1026 30.3 855 25.25 23.5 74.2 32 5.9 42.6
09:55 1026 30.3 855 25.25 23.4 74.2 32 5.9 42.7
10:00 1026 30.3 855 25.25 23.5 74.2 32 6 42.8
10:05 1026 30.3 855 25.25 23.5 74.3 33 6.3 43.4
10:10 1025 30.27 855 25.25 23.1 73.5 32 5.5 41.9
10:15 1025 30.27 855 25.25 22.9 73.3 33 5.8 42.5
10:20 1025 30.27 855 25.25 22.8 73 33 5.7 42.2
10:25 1025 30.27 855 25.25 23.6 74.5 31 5.7 42.3
10:30 1025 30.27 855 25.25 24.1 75.4 31 6 42.8
10:35 1025 30.27 855 25.25 24 75.2 31 6.1 42.9
10:40 1025 30.27 854 25.22 24.5 76.1 30 6 42.8
10:45 1025 30.27 854 25.22 24.3 75.8 31 6.5 43.7
10:50 1025 30.27 854 25.22 23.9 75 30 5.3 41.6
10:55 1025 30.27 854 25.22 24.5 76 30 6 42.7
11:00 1025 30.27 854 25.22 23.9 75 29 5.2 41.3
11:05 1025 30.27 854 25.22 24.2 75.6 29 5.4 41.7
11:10 1025 30.27 854 25.22 24.9 76.7 29 5.7 42.3
11:15 1025 30.27 854 25.22 25.4 77.7 26 4.9 40.7
11:20 1025 30.27 854 25.22 25.4 77.7 26 5 41
11:25 1025 30.27 854 25.22 25 77.1 25 3.6 38.6
11:30 1025 30.27 854 25.22 24.8 76.6 27 4.5 40.2
11:35 1025 30.27 854 25.22 25.8 78.4 22 2.4 36.3
11:40 1025 30.27 854 25.22 25.7 78.3 25 4.4 39.9
11:45 1025 30.27 854 25.22 26.1 78.9 24 4.5 40
11:50 1024 30.24 854 25.22 26.3 79.4 20 1.8 35.3
11:55 1024 30.24 854 25.22 26 78.7 23 3.7 38.7
12:00 1024 30.24 854 25.22 25.7 78.3 22 2.8 37
12:05 1024 30.24 854 25.22 27 80.5 19 1.8 35.3
12:10 1024 30.24 853 25.19 27.6 81.8 18 1.5 34.6
12:15 1024 30.24 853 25.19 27.5 81.4 18 1.2 34.1
12:20 1024 30.24 853 25.19 27.7 81.8 18 1.5 34.7
12:25 1024 30.24 853 25.19 28.5 83.2 16 0.2 32.3
12:30 1024 30.24 853 25.19 28.3 83 16 0 32
12:35 1024 30.24 853 25.19 28.5 83.2 15 0.1 32.1
12:40 1024 30.24 853 25.19 28.7 83.7 15 0.2 32.3
12:45 1024 30.24 853 25.19 28.6 83.4 15 -0.5 31.1
12:50 1024 30.24 853 25.19 29 84.2 12 -3.4 25.9
12:55 1024 30.24 853 25.19 29.3 84.8 14 -1 30.2
13:00 1024 30.24 853 25.19 29.2 84.6 13 -1.7 28.9
13:05 1023 30.21 853 25.19 28.6 83.6 12 -3.3 26.1
13:10 1023 30.21 853 25.19 28.7 83.6 13 -2.5 27.6
13:15 1023 30.21 853 25.19 29.1 84.3 13 -2.2 28.1
13:20 1023 30.21 852 25.16 28.3 82.9 12 -3.1 26.5
13:25 1023 30.21 852 25.16 28.5 83.3 12 -3.5 25.8
13:30 1023 30.21 852 25.16 29.4 84.8 11 -4.1 24.6
13:35 1023 30.21 852 25.16 29.7 85.4 10 -4.6 23.8
13:40 1023 30.21 852 25.16 29.5 85.2 11 -3.5 25.7
13:45 1023 30.21 852 25.16 29.5 85.2 10 -4.6 23.7
13:50 1023 30.21 852 25.16 28.9 84.1 11 -3.8 25.1
13:55 1023 30.21 852 25.16 30.4 86.7 10 -4.3 24.3
14:00 1023 30.21 852 25.16 30.1 86.1 10 -4.6 23.7
14:05 1023 30.21 852 25.16 30.2 86.4 11 -3.7 25.4
14:10 1022 30.18 852 25.16 30.1 86.3 11 -3.3 26.1
14:15 1022 30.18 852 25.16 30.5 86.8 11 -3.4 25.8
14:20 1022 30.18 852 25.16 30.9 87.5 10 -3.4 26
14:25 1022 30.18 852 25.16 31 87.8 11 -3 26.6
14:30 1022 30.18 851 25.13 31.1 87.9 10 -3.5 25.7
14:35 1022 30.18 851 25.13 29.9 85.9 12 -2.1 28.2
14:40 1022 30.18 851 25.13 29.2 84.6 12 -3 26.6
14:45 1022 30.18 851 25.13 29.3 84.7 12 -3.2 26.2
14:50 1022 30.18 851 25.13 29.4 84.9 12 -2.7 27.2
14:55 1022 30.18 851 25.13 29.9 85.8 12 -2.7 27.1
15:00 1022 30.18 851 25.13 29.8 85.6 11 -3.3 26.1
15:05 1022 30.18 851 25.13 30.1 86.2 10 -4.3 24.3
15:10 1022 30.18 851 25.13 30.4 86.8 10 -3.7 25.3
15:15 1022 30.18 851 25.13 30.2 86.3 11 -3.7 25.3
15:20 1022 30.18 851 25.13 29.8 85.7 11 -3.8 25.2
15:25 1022 30.18 851 25.13 29.2 84.6 10 -4.6 23.7
15:30 1022 30.18 851 25.13 29.1 84.5 12 -3.4 25.9
15:35 1022 30.18 851 25.13 29 84.3 11 -4.4 24
15:40 1022 30.18 851 25.13 29.1 84.3 11 -4.4 24
15:45 1022 30.18 851 25.13 29.1 84.5 11 -4 24.7
15:50 1022 30.18 851 25.13 29.2 84.6 12 -2.8 27
15:55 1022 30.18 851 25.13 29.1 84.3 11 -4 24.8
16:00 1022 30.18 851 25.13 29.1 84.4 11 -4 24.9
16:05 1022 30.18 851 25.13 28.9 84.1 12 -3.4 25.8
16:10 1022 30.18 851 25.13 28.9 84 12 -3.3 26.1
16:15 1022 30.18 851 25.13 28.8 83.9 12 -2.8 26.9
16:20 1022 30.18 851 25.13 28.3 83 15 -0.3 31.5
16:25 1022 30.18 851 25.13 27.2 80.9 18 1.4 34.4
16:30 1022 30.18 852 25.16 26.5 79.6 20 1.9 35.4
16:35 1022 30.18 851 25.13 26.3 79.3 19 0.8 33.5
16:40 1022 30.18 851 25.13 26.3 79.3 19 0.8 33.5
16:45 1022 30.18 851 25.13 26.3 79.3 21 2.5 36.6
16:50 1022 30.18 851 25.13 26 78.7 22 3 37.3
16:55 1022 30.18 851 25.13 25.6 78.1 22 2.8 37.1
17:00 1021 30.15 851 25.13 25.4 77.8 24 3.4 38.2
17:05 1022 30.18 851 25.13 25.1 77.2 23 3 37.4
17:10 1022 30.18 851 25.13 25.5 78 23 3.1 37.6
17:15 1022 30.18 851 25.13 25.8 78.4 23 3.4 38.1
17:20 1022 30.18 851 25.13 25.9 78.6 24 3.9 39
17:25 1022 30.18 851 25.13 25.6 78 22 2.8 37.1
17:30 1021 30.15 851 25.13 25.4 77.8 23 3.3 38
17:35 1021 30.15 851 25.13 25.2 77.4 24 3.7 38.7
17:40 1021 30.15 850 25.1 25.3 77.5 22 2.6 36.6
17:45 1021 30.15 850 25.1 25.4 77.6 21 2 35.6
17:50 1021 30.15 850 25.1 25.5 77.8 25 4 39.2
17:55 1021 30.15 850 25.1 25.4 77.7 27 5.5 41.9
18:00 1021 30.15 850 25.1 25.3 77.6 25 4 39.1
18:05 1021 30.15 850 25.1 24.9 76.9 27 5.1 41.3
18:10 1021 30.15 850 25.1 24.8 76.6 26 4 39.1
18:15 1021 30.15 850 25.1 24.6 76.3 27 4.5 40.1
18:20 1021 30.15 850 25.1 24.5 76.2 27 4.4 40
18:25 1021 30.15 850 25.1 24.5 76 28 4.9 40.7
18:30 1021 30.15 851 25.13 24.4 75.9 26 4.1 39.4
18:35 1021 30.15 851 25.13 24.4 75.8 26 3.6 38.5
18:40 1021 30.15 851 25.13 24.4 75.9 26 3.9 39
18:45 1021 30.15 851 25.13 24.4 75.9 27 4.5 40.1
18:50 1021 30.15 850 25.1 24.1 75.3 28 4.5 40.1
18:55 1021 30.15 850 25.1 23.9 75.1 29 5 41
19:00 1021 30.15 850 25.1 23.8 74.8 30 5.3 41.6
19:05 1021 30.15 850 25.1 23.8 74.8 26 3.6 38.4
19:10 1021 30.15 850 25.1 24.1 75.4 24 2.7 36.9
19:15 1021 30.15 850 25.1 24.4 75.9 24 2.5 36.5
19:20 1021 30.15 850 25.1 24.3 75.7 24 2.6 36.8
19:25 1021 30.15 850 25.1 24.3 75.7 23 2.3 36.1
19:30 1021 30.15 850 25.1 24.2 75.5 24 2.9 37.2
19:35 1021 30.15 850 25.1 24 75.1 25 2.8 37.1
19:40 1021 30.15 850 25.1 23.8 74.9 25 2.7 36.9
19:45 1022 30.18 851 25.13 23.8 74.8 27 4 39.2
19:50 1022 30.18 851 25.13 23.8 74.8 28 4.4 39.9
19:55 1022 30.18 852 25.16 23 73.3 32 5.6 42
20:00 1022 30.18 852 25.16 22.6 72.8 29 4.1 39.4
20:05 1022 30.18 852 25.16 23.2 73.7 27 3.6 38.4
20:10 1023 30.21 852 25.16 23.4 74.1 32 5.8 42.5
20:15 1023 30.21 852 25.16 22.2 71.9 35 6.1 43
20:20 1023 30.21 853 25.19 21.6 70.8 37 6.6 43.8
20:25 1023 30.21 853 25.19 21.2 70.2 39 6.7 44.1
20:30 1023 30.21 852 25.16 20.8 69.5 41 7.2 44.9
20:35 1023 30.21 852 25.16 20.8 69.4 38 6 42.8
20:40 1023 30.21 852 25.16 20.9 69.6 35 5.2 41.4
20:45 1023 30.21 852 25.16 20.9 69.7 35 5.1 41.1
20:50 1023 30.21 852 25.16 20.9 69.7 35 5 41
20:55 1023 30.21 852 25.16 21 69.8 35 5.1 41.2
21:00 1023 30.21 852 25.16 20.9 69.5 36 5.5 41.9
21:05 1023 30.21 852 25.16 20.8 69.5 35 5 41
21:10 1023 30.21 852 25.16 20.7 69.3 36 5.4 41.7
21:15 1022 30.18 852 25.16 20.4 68.8 36 5 41
21:20 1022 30.18 852 25.16 20.4 68.6 37 5.2 41.3
21:25 1022 30.18 851 25.13 20.4 68.7 36 5 41
21:30 1022 30.18 851 25.13 20.5 68.9 36 5.1 41.2
21:35 1022 30.18 851 25.13 20.5 68.8 36 5.1 41.2
21:40 1023 30.21 852 25.16 20.4 68.6 37 5.3 41.5
21:45 1023 30.21 852 25.16 20.2 68.3 40 6.3 43.3
21:50 1023 30.21 853 25.19 20 67.9 41 6.4 43.5
21:55 1023 30.21 852 25.16 19.8 67.6 41 6.4 43.6
22:00 1021 30.15 850 25.1 19.6 67.2 43 6.9 44.4
22:05 1021 30.15 850 25.1 19.4 66.9 42 6.3 43.4
22:10 1021 30.15 850 25.1 19.5 67.1 40 5.8 42.5
22:15 1021 30.15 850 25.1 19.6 67.3 40 5.9 42.6
22:20 1021 30.15 850 25.1 19.6 67.3 40 5.8 42.5
22:25 1021 30.15 851 25.13 19.7 67.4 40 5.8 42.4
22:30 1021 30.15 851 25.13 19.6 67.3 43 6.7 44.1
22:35 1021 30.15 851 25.13 19.5 67.1 39 5.4 41.7
22:40 1022 30.18 851 25.13 19.4 66.9 42 6.4 43.5
22:45 1022 30.18 851 25.13 18.8 65.8 46 7 44.6
22:50 1021 30.15 851 25.13 18.4 65.1 47 6.8 44.3
22:55 1021 30.15 851 25.13 18.4 65.1 45 6.3 43.3
23:00 1022 30.18 851 25.13 18.8 65.8 42 5.9 42.6
23:05 1022 30.18 851 25.13 19.1 66.4 42 5.9 42.7
23:10 1022 30.18 851 25.13 19.2 66.6 41 5.9 42.5
23:15 1022 30.18 851 25.13 19.3 66.7 40 5.5 41.9
23:20 1021 30.15 850 25.1 19.4 66.9 41 5.9 42.6
23:25 1021 30.15 850 25.1 19.1 66.5 42 6 42.8
23:30 1021 30.15 850 25.1 19.1 66.3 42 5.9 42.6
23:35 1021 30.15 850 25.1 19.1 66.3 42 5.9 42.7
23:40 1021 30.15 850 25.1 19 66.1 43 6.2 43.2
23:45 1021 30.15 850 25.1 18.9 66 42 6 42.8
23:50 1021 30.15 850 25.1 19 66.2 43 6.1 43
23:55 1021 30.15 850 25.1 19 66.2 42 6 42.8
24:00 1021 30.15 851 25.13 19 66.3 42 6 42.9